sensor_id;sensor_type;location;lat;lon;timestamp;P1;durP1;ratioP1;P2;durP2;ratioP2
85738;SDS011;76182;41.498;22.100;2024-02-28T00:00:24;22.80;;;11.07;;
85738;SDS011;76182;41.498;22.100;2024-02-28T00:02:50;20.33;;;11.88;;
85738;SDS011;76182;41.498;22.100;2024-02-28T00:05:16;21.30;;;12.07;;
85738;SDS011;76182;41.498;22.100;2024-02-28T00:07:41;20.13;;;12.23;;
85738;SDS011;76182;41.498;22.100;2024-02-28T00:10:07;23.63;;;11.85;;
85738;SDS011;76182;41.498;22.100;2024-02-28T00:12:33;22.15;;;12.68;;
85738;SDS011;76182;41.498;22.100;2024-02-28T00:14:59;20.48;;;12.57;;
85738;SDS011;76182;41.498;22.100;2024-02-28T00:17:25;20.85;;;12.80;;
85738;SDS011;76182;41.498;22.100;2024-02-28T00:19:50;23.70;;;12.93;;
85738;SDS011;76182;41.498;22.100;2024-02-28T00:22:16;23.20;;;12.77;;
85738;SDS011;76182;41.498;22.100;2024-02-28T00:24:41;24.50;;;13.27;;
85738;SDS011;76182;41.498;22.100;2024-02-28T00:27:07;24.20;;;13.55;;
85738;SDS011;76182;41.498;22.100;2024-02-28T00:29:32;22.80;;;12.43;;
85738;SDS011;76182;41.498;22.100;2024-02-28T00:31:58;25.92;;;13.45;;
85738;SDS011;76182;41.498;22.100;2024-02-28T00:34:23;28.45;;;12.82;;
85738;SDS011;76182;41.498;22.100;2024-02-28T00:36:49;29.23;;;12.75;;
85738;SDS011;76182;41.498;22.100;2024-02-28T00:39:14;24.33;;;13.35;;
85738;SDS011;76182;41.498;22.100;2024-02-28T00:41:40;22.30;;;13.18;;
85738;SDS011;76182;41.498;22.100;2024-02-28T00:44:05;26.75;;;13.25;;
85738;SDS011;76182;41.498;22.100;2024-02-28T00:46:31;25.17;;;12.95;;
85738;SDS011;76182;41.498;22.100;2024-02-28T00:48:56;29.65;;;13.63;;
85738;SDS011;76182;41.498;22.100;2024-02-28T00:51:22;18.40;;;12.63;;
85738;SDS011;76182;41.498;22.100;2024-02-28T00:53:47;24.63;;;13.50;;
85738;SDS011;76182;41.498;22.100;2024-02-28T00:56:14;22.20;;;13.30;;
85738;SDS011;76182;41.498;22.100;2024-02-28T00:58:39;25.60;;;13.25;;
85738;SDS011;76182;41.498;22.100;2024-02-28T01:01:05;23.25;;;12.32;;
85738;SDS011;76182;41.498;22.100;2024-02-28T01:03:32;26.20;;;14.90;;
85738;SDS011;76182;41.498;22.100;2024-02-28T01:05:57;26.42;;;13.52;;
85738;SDS011;76182;41.498;22.100;2024-02-28T01:08:26;24.23;;;13.88;;
85738;SDS011;76182;41.498;22.100;2024-02-28T01:10:51;24.77;;;13.82;;
85738;SDS011;76182;41.498;22.100;2024-02-28T01:13:17;28.52;;;13.68;;
85738;SDS011;76182;41.498;22.100;2024-02-28T01:15:42;26.38;;;13.60;;
85738;SDS011;76182;41.498;22.100;2024-02-28T01:18:08;23.10;;;14.00;;
85738;SDS011;76182;41.498;22.100;2024-02-28T01:20:35;26.85;;;13.85;;
85738;SDS011;76182;41.498;22.100;2024-02-28T01:23:00;25.23;;;14.38;;
85738;SDS011;76182;41.498;22.100;2024-02-28T01:25:26;25.70;;;13.65;;
85738;SDS011;76182;41.498;22.100;2024-02-28T01:27:51;26.55;;;14.30;;
85738;SDS011;76182;41.498;22.100;2024-02-28T01:30:17;24.58;;;12.88;;
85738;SDS011;76182;41.498;22.100;2024-02-28T01:32:43;23.73;;;13.75;;
85738;SDS011;76182;41.498;22.100;2024-02-28T01:35:09;22.25;;;13.10;;
85738;SDS011;76182;41.498;22.100;2024-02-28T01:37:34;22.30;;;12.75;;
85738;SDS011;76182;41.498;22.100;2024-02-28T01:40:00;30.70;;;12.98;;
85738;SDS011;76182;41.498;22.100;2024-02-28T01:42:25;23.67;;;13.30;;
85738;SDS011;76182;41.498;22.100;2024-02-28T01:44:51;22.77;;;12.48;;
85738;SDS011;76182;41.498;22.100;2024-02-28T01:47:16;24.73;;;14.75;;
85738;SDS011;76182;41.498;22.100;2024-02-28T01:49:43;25.23;;;12.85;;
85738;SDS011;76182;41.498;22.100;2024-02-28T01:52:11;30.35;;;11.88;;
85738;SDS011;76182;41.498;22.100;2024-02-28T01:54:37;29.02;;;13.43;;
85738;SDS011;76182;41.498;22.100;2024-02-28T01:57:03;24.52;;;12.25;;
85738;SDS011;76182;41.498;22.100;2024-02-28T01:59:30;26.40;;;13.80;;
85738;SDS011;76182;41.498;22.100;2024-02-28T02:01:57;25.77;;;12.88;;
85738;SDS011;76182;41.498;22.100;2024-02-28T02:04:22;28.38;;;13.15;;
85738;SDS011;76182;41.498;22.100;2024-02-28T02:06:48;22.50;;;12.57;;
85738;SDS011;76182;41.498;22.100;2024-02-28T02:09:14;25.10;;;12.85;;
85738;SDS011;76182;41.498;22.100;2024-02-28T02:11:40;24.02;;;12.75;;
85738;SDS011;76182;41.498;22.100;2024-02-28T02:14:05;22.85;;;12.38;;
85738;SDS011;76182;41.498;22.100;2024-02-28T02:16:31;25.30;;;13.00;;
85738;SDS011;76182;41.498;22.100;2024-02-28T02:18:57;25.95;;;12.45;;
85738;SDS011;76182;41.498;22.100;2024-02-28T02:21:23;32.00;;;12.70;;
85738;SDS011;76182;41.498;22.100;2024-02-28T02:23:49;24.30;;;11.90;;
85738;SDS011;76182;41.498;22.100;2024-02-28T02:26:15;22.38;;;13.27;;
85738;SDS011;76182;41.498;22.100;2024-02-28T02:28:40;25.70;;;12.27;;
85738;SDS011;76182;41.498;22.100;2024-02-28T02:31:06;25.33;;;12.90;;
85738;SDS011;76182;41.498;22.100;2024-02-28T02:33:31;25.45;;;12.35;;
85738;SDS011;76182;41.498;22.100;2024-02-28T02:35:58;23.58;;;12.40;;
85738;SDS011;76182;41.498;22.100;2024-02-28T02:38:23;22.25;;;13.05;;
85738;SDS011;76182;41.498;22.100;2024-02-28T02:40:52;24.10;;;12.45;;
85738;SDS011;76182;41.498;22.100;2024-02-28T02:43:17;22.67;;;11.55;;
85738;SDS011;76182;41.498;22.100;2024-02-28T02:45:43;25.42;;;11.85;;
85738;SDS011;76182;41.498;22.100;2024-02-28T02:48:09;25.40;;;12.45;;
85738;SDS011;76182;41.498;22.100;2024-02-28T02:50:35;22.85;;;12.27;;
85738;SDS011;76182;41.498;22.100;2024-02-28T02:53:02;22.52;;;11.30;;
85738;SDS011;76182;41.498;22.100;2024-02-28T02:55:28;20.17;;;12.48;;
85738;SDS011;76182;41.498;22.100;2024-02-28T02:57:53;20.45;;;12.40;;
85738;SDS011;76182;41.498;22.100;2024-02-28T03:00:20;20.10;;;11.52;;
85738;SDS011;76182;41.498;22.100;2024-02-28T03:02:46;17.85;;;10.68;;
85738;SDS011;76182;41.498;22.100;2024-02-28T03:05:11;22.52;;;11.95;;
85738;SDS011;76182;41.498;22.100;2024-02-28T03:07:37;25.35;;;11.13;;
85738;SDS011;76182;41.498;22.100;2024-02-28T03:10:02;20.38;;;11.02;;
85738;SDS011;76182;41.498;22.100;2024-02-28T03:12:28;20.70;;;10.32;;
85738;SDS011;76182;41.498;22.100;2024-02-28T03:14:54;15.00;;;9.65;;
85738;SDS011;76182;41.498;22.100;2024-02-28T03:17:19;16.35;;;9.40;;
85738;SDS011;76182;41.498;22.100;2024-02-28T03:19:45;20.98;;;10.45;;
85738;SDS011;76182;41.498;22.100;2024-02-28T03:22:10;24.92;;;11.43;;
85738;SDS011;76182;41.498;22.100;2024-02-28T03:24:35;19.85;;;11.85;;
85738;SDS011;76182;41.498;22.100;2024-02-28T03:27:01;26.70;;;10.07;;
85738;SDS011;76182;41.498;22.100;2024-02-28T03:29:27;19.40;;;10.00;;
85738;SDS011;76182;41.498;22.100;2024-02-28T03:31:53;25.17;;;10.57;;
85738;SDS011;76182;41.498;22.100;2024-02-28T03:34:19;21.42;;;10.93;;
85738;SDS011;76182;41.498;22.100;2024-02-28T03:36:44;24.63;;;11.18;;
85738;SDS011;76182;41.498;22.100;2024-02-28T03:39:10;23.00;;;11.18;;
85738;SDS011;76182;41.498;22.100;2024-02-28T03:41:35;15.95;;;10.32;;
85738;SDS011;76182;41.498;22.100;2024-02-28T03:44:01;20.73;;;10.80;;
85738;SDS011;76182;41.498;22.100;2024-02-28T03:46:26;19.00;;;10.43;;
85738;SDS011;76182;41.498;22.100;2024-02-28T03:48:52;22.70;;;10.73;;
85738;SDS011;76182;41.498;22.100;2024-02-28T03:51:17;16.50;;;9.32;;
85738;SDS011;76182;41.498;22.100;2024-02-28T03:53:43;23.67;;;10.23;;
85738;SDS011;76182;41.498;22.100;2024-02-28T03:56:08;22.60;;;10.63;;
85738;SDS011;76182;41.498;22.100;2024-02-28T03:58:35;19.75;;;9.80;;
85738;SDS011;76182;41.498;22.100;2024-02-28T04:01:00;19.27;;;10.18;;
85738;SDS011;76182;41.498;22.100;2024-02-28T04:03:26;25.40;;;11.02;;
85738;SDS011;76182;41.498;22.100;2024-02-28T04:05:51;23.30;;;10.48;;
85738;SDS011;76182;41.498;22.100;2024-02-28T04:08:17;22.45;;;9.95;;
85738;SDS011;76182;41.498;22.100;2024-02-28T04:10:42;15.43;;;9.50;;
85738;SDS011;76182;41.498;22.100;2024-02-28T04:13:07;20.08;;;9.10;;
85738;SDS011;76182;41.498;22.100;2024-02-28T04:15:34;17.15;;;8.95;;
85738;SDS011;76182;41.498;22.100;2024-02-28T04:17:59;18.63;;;9.10;;
85738;SDS011;76182;41.498;22.100;2024-02-28T04:20:25;19.40;;;10.15;;
85738;SDS011;76182;41.498;22.100;2024-02-28T04:22:50;16.05;;;9.88;;
85738;SDS011;76182;41.498;22.100;2024-02-28T04:25:16;18.77;;;9.38;;
85738;SDS011;76182;41.498;22.100;2024-02-28T04:27:41;19.80;;;9.63;;
85738;SDS011;76182;41.498;22.100;2024-02-28T04:30:07;14.90;;;9.38;;
85738;SDS011;76182;41.498;22.100;2024-02-28T04:32:33;14.18;;;9.80;;
85738;SDS011;76182;41.498;22.100;2024-02-28T04:35:00;18.10;;;8.57;;
85738;SDS011;76182;41.498;22.100;2024-02-28T04:37:26;16.92;;;9.15;;
85738;SDS011;76182;41.498;22.100;2024-02-28T04:39:51;18.70;;;10.18;;
85738;SDS011;76182;41.498;22.100;2024-02-28T04:42:16;24.05;;;9.77;;
85738;SDS011;76182;41.498;22.100;2024-02-28T04:44:42;22.45;;;10.70;;
85738;SDS011;76182;41.498;22.100;2024-02-28T04:47:07;19.98;;;9.90;;
85738;SDS011;76182;41.498;22.100;2024-02-28T04:49:36;16.13;;;8.93;;
85738;SDS011;76182;41.498;22.100;2024-02-28T04:52:02;19.92;;;10.25;;
85738;SDS011;76182;41.498;22.100;2024-02-28T04:54:28;20.45;;;10.25;;
85738;SDS011;76182;41.498;22.100;2024-02-28T04:56:53;17.83;;;9.88;;
85738;SDS011;76182;41.498;22.100;2024-02-28T04:59:18;17.83;;;8.82;;
85738;SDS011;76182;41.498;22.100;2024-02-28T05:01:44;15.50;;;9.30;;
85738;SDS011;76182;41.498;22.100;2024-02-28T05:04:11;18.00;;;8.88;;
85738;SDS011;76182;41.498;22.100;2024-02-28T05:06:36;19.48;;;8.75;;
85738;SDS011;76182;41.498;22.100;2024-02-28T05:09:02;17.15;;;8.75;;
85738;SDS011;76182;41.498;22.100;2024-02-28T05:11:27;16.98;;;9.30;;
85738;SDS011;76182;41.498;22.100;2024-02-28T05:13:53;15.20;;;9.02;;
85738;SDS011;76182;41.498;22.100;2024-02-28T05:16:18;17.80;;;8.63;;
85738;SDS011;76182;41.498;22.100;2024-02-28T05:18:44;16.67;;;8.32;;
85738;SDS011;76182;41.498;22.100;2024-02-28T05:21:10;18.33;;;7.53;;
85738;SDS011;76182;41.498;22.100;2024-02-28T05:23:36;19.33;;;7.80;;
85738;SDS011;76182;41.498;22.100;2024-02-28T05:26:01;19.58;;;9.70;;
85738;SDS011;76182;41.498;22.100;2024-02-28T05:28:31;20.35;;;13.10;;
85738;SDS011;76182;41.498;22.100;2024-02-28T05:31:10;23.60;;;12.18;;
85738;SDS011;76182;41.498;22.100;2024-02-28T05:33:44;18.80;;;10.88;;
85738;SDS011;76182;41.498;22.100;2024-02-28T05:36:09;18.67;;;9.73;;
85738;SDS011;76182;41.498;22.100;2024-02-28T05:38:35;13.88;;;7.72;;
85738;SDS011;76182;41.498;22.100;2024-02-28T05:41:00;17.33;;;8.35;;
85738;SDS011;76182;41.498;22.100;2024-02-28T05:43:26;16.02;;;8.63;;
85738;SDS011;76182;41.498;22.100;2024-02-28T05:45:52;26.00;;;9.07;;
85738;SDS011;76182;41.498;22.100;2024-02-28T05:48:18;25.58;;;8.52;;
85738;SDS011;76182;41.498;22.100;2024-02-28T05:50:43;11.43;;;6.88;;
85738;SDS011;76182;41.498;22.100;2024-02-28T05:53:09;14.70;;;7.00;;
85738;SDS011;76182;41.498;22.100;2024-02-28T05:55:35;25.02;;;7.32;;
85738;SDS011;76182;41.498;22.100;2024-02-28T05:58:00;13.77;;;6.93;;
85738;SDS011;76182;41.498;22.100;2024-02-28T06:00:26;12.88;;;6.35;;
85738;SDS011;76182;41.498;22.100;2024-02-28T06:02:53;11.98;;;7.38;;
85738;SDS011;76182;41.498;22.100;2024-02-28T06:05:19;18.10;;;8.05;;
85738;SDS011;76182;41.498;22.100;2024-02-28T06:07:44;14.52;;;7.30;;
85738;SDS011;76182;41.498;22.100;2024-02-28T06:10:10;16.58;;;7.18;;
85738;SDS011;76182;41.498;22.100;2024-02-28T06:12:35;14.52;;;7.40;;
85738;SDS011;76182;41.498;22.100;2024-02-28T06:15:01;20.88;;;8.15;;
85738;SDS011;76182;41.498;22.100;2024-02-28T06:17:27;15.73;;;7.45;;
85738;SDS011;76182;41.498;22.100;2024-02-28T06:19:53;12.18;;;6.95;;
85738;SDS011;76182;41.498;22.100;2024-02-28T06:22:18;18.98;;;7.07;;
85738;SDS011;76182;41.498;22.100;2024-02-28T06:24:45;28.90;;;6.70;;
85738;SDS011;76182;41.498;22.100;2024-02-28T06:27:10;11.40;;;5.93;;
85738;SDS011;76182;41.498;22.100;2024-02-28T06:29:47;12.43;;;6.03;;
85738;SDS011;76182;41.498;22.100;2024-02-28T06:32:14;12.85;;;5.82;;
85738;SDS011;76182;41.498;22.100;2024-02-28T06:34:39;18.02;;;6.20;;
85738;SDS011;76182;41.498;22.100;2024-02-28T06:37:07;12.07;;;6.70;;
85738;SDS011;76182;41.498;22.100;2024-02-28T06:39:32;11.88;;;6.57;;
85738;SDS011;76182;41.498;22.100;2024-02-28T06:41:57;12.73;;;6.32;;
85738;SDS011;76182;41.498;22.100;2024-02-28T06:44:25;8.52;;;6.03;;
85738;SDS011;76182;41.498;22.100;2024-02-28T06:46:50;9.95;;;5.93;;
85738;SDS011;76182;41.498;22.100;2024-02-28T06:49:16;15.63;;;7.88;;
85738;SDS011;76182;41.498;22.100;2024-02-28T06:51:43;13.75;;;7.25;;
85738;SDS011;76182;41.498;22.100;2024-02-28T06:54:09;13.40;;;8.27;;
85738;SDS011;76182;41.498;22.100;2024-02-28T06:56:35;12.80;;;6.40;;
85738;SDS011;76182;41.498;22.100;2024-02-28T06:59:01;13.93;;;7.30;;
85738;SDS011;76182;41.498;22.100;2024-02-28T07:01:27;10.63;;;6.70;;
85738;SDS011;76182;41.498;22.100;2024-02-28T07:03:52;10.77;;;6.65;;
85738;SDS011;76182;41.498;22.100;2024-02-28T07:06:19;13.52;;;6.40;;
85738;SDS011;76182;41.498;22.100;2024-02-28T07:08:47;13.32;;;6.40;;
85738;SDS011;76182;41.498;22.100;2024-02-28T07:11:13;12.68;;;7.38;;
85738;SDS011;76182;41.498;22.100;2024-02-28T07:13:39;14.60;;;7.32;;
85738;SDS011;76182;41.498;22.100;2024-02-28T07:16:05;12.38;;;7.22;;
85738;SDS011;76182;41.498;22.100;2024-02-28T07:18:31;12.52;;;7.72;;
85738;SDS011;76182;41.498;22.100;2024-02-28T07:20:57;12.20;;;7.13;;
85738;SDS011;76182;41.498;22.100;2024-02-28T07:23:22;13.88;;;7.15;;
85738;SDS011;76182;41.498;22.100;2024-02-28T07:25:48;16.10;;;7.75;;
85738;SDS011;76182;41.498;22.100;2024-02-28T07:28:13;11.82;;;7.20;;
85738;SDS011;76182;41.498;22.100;2024-02-28T07:30:39;12.57;;;6.50;;
85738;SDS011;76182;41.498;22.100;2024-02-28T07:33:05;9.90;;;6.88;;
85738;SDS011;76182;41.498;22.100;2024-02-28T07:35:31;10.25;;;7.30;;
85738;SDS011;76182;41.498;22.100;2024-02-28T07:37:56;10.38;;;7.28;;
85738;SDS011;76182;41.498;22.100;2024-02-28T07:40:22;17.27;;;6.97;;
85738;SDS011;76182;41.498;22.100;2024-02-28T07:42:47;16.58;;;8.00;;
85738;SDS011;76182;41.498;22.100;2024-02-28T07:45:13;16.33;;;6.68;;
85738;SDS011;76182;41.498;22.100;2024-02-28T07:47:38;15.10;;;7.13;;
85738;SDS011;76182;41.498;22.100;2024-02-28T07:50:06;12.32;;;7.18;;
85738;SDS011;76182;41.498;22.100;2024-02-28T07:52:32;22.80;;;8.50;;
85738;SDS011;76182;41.498;22.100;2024-02-28T07:55:00;15.68;;;7.72;;
85738;SDS011;76182;41.498;22.100;2024-02-28T07:57:27;19.90;;;8.10;;
85738;SDS011;76182;41.498;22.100;2024-02-28T07:59:52;10.90;;;6.97;;
85738;SDS011;76182;41.498;22.100;2024-02-28T08:02:18;12.23;;;7.03;;
85738;SDS011;76182;41.498;22.100;2024-02-28T08:04:45;15.65;;;7.60;;
85738;SDS011;76182;41.498;22.100;2024-02-28T08:07:10;11.63;;;6.22;;
85738;SDS011;76182;41.498;22.100;2024-02-28T08:09:36;10.50;;;6.75;;
85738;SDS011;76182;41.498;22.100;2024-02-28T08:12:01;15.57;;;7.72;;
85738;SDS011;76182;41.498;22.100;2024-02-28T08:14:27;12.80;;;6.90;;
85738;SDS011;76182;41.498;22.100;2024-02-28T08:16:53;17.20;;;8.38;;
85738;SDS011;76182;41.498;22.100;2024-02-28T08:19:18;16.83;;;7.38;;
85738;SDS011;76182;41.498;22.100;2024-02-28T08:21:44;16.23;;;6.68;;
85738;SDS011;76182;41.498;22.100;2024-02-28T08:24:09;21.50;;;7.40;;
85738;SDS011;76182;41.498;22.100;2024-02-28T08:26:35;10.40;;;7.45;;
85738;SDS011;76182;41.498;22.100;2024-02-28T08:29:01;12.73;;;6.75;;
85738;SDS011;76182;41.498;22.100;2024-02-28T08:31:27;17.63;;;9.20;;
85738;SDS011;76182;41.498;22.100;2024-02-28T08:33:53;14.98;;;7.13;;
85738;SDS011;76182;41.498;22.100;2024-02-28T08:36:18;22.75;;;7.55;;
85738;SDS011;76182;41.498;22.100;2024-02-28T08:38:44;20.25;;;6.93;;
85738;SDS011;76182;41.498;22.100;2024-02-28T08:41:10;13.18;;;6.85;;
85738;SDS011;76182;41.498;22.100;2024-02-28T08:43:38;11.98;;;6.45;;
85738;SDS011;76182;41.498;22.100;2024-02-28T08:46:04;13.98;;;5.70;;
85738;SDS011;76182;41.498;22.100;2024-02-28T08:48:31;11.30;;;6.32;;
85738;SDS011;76182;41.498;22.100;2024-02-28T08:50:57;16.40;;;6.40;;
85738;SDS011;76182;41.498;22.100;2024-02-28T08:53:23;9.68;;;5.55;;
85738;SDS011;76182;41.498;22.100;2024-02-28T08:55:48;11.18;;;6.07;;
85738;SDS011;76182;41.498;22.100;2024-02-28T08:58:14;12.93;;;6.07;;
85738;SDS011;76182;41.498;22.100;2024-02-28T09:00:39;13.63;;;6.78;;
85738;SDS011;76182;41.498;22.100;2024-02-28T09:03:05;11.15;;;5.90;;
85738;SDS011;76182;41.498;22.100;2024-02-28T09:05:30;16.55;;;6.00;;
85738;SDS011;76182;41.498;22.100;2024-02-28T09:07:56;11.20;;;6.30;;
85738;SDS011;76182;41.498;22.100;2024-02-28T09:10:22;13.80;;;6.40;;
85738;SDS011;76182;41.498;22.100;2024-02-28T09:12:51;25.65;;;7.15;;
85738;SDS011;76182;41.498;22.100;2024-02-28T09:15:17;17.00;;;6.25;;
85738;SDS011;76182;41.498;22.100;2024-02-28T09:17:43;13.98;;;5.60;;
85738;SDS011;76182;41.498;22.100;2024-02-28T09:20:09;12.15;;;6.40;;
85738;SDS011;76182;41.498;22.100;2024-02-28T09:22:35;7.75;;;4.88;;
85738;SDS011;76182;41.498;22.100;2024-02-28T09:25:01;16.25;;;5.93;;
85738;SDS011;76182;41.498;22.100;2024-02-28T09:27:29;17.92;;;5.95;;
85738;SDS011;76182;41.498;22.100;2024-02-28T09:29:55;11.93;;;5.22;;
85738;SDS011;76182;41.498;22.100;2024-02-28T09:32:21;14.55;;;4.80;;
85738;SDS011;76182;41.498;22.100;2024-02-28T09:34:47;10.48;;;5.95;;
85738;SDS011;76182;41.498;22.100;2024-02-28T09:37:13;13.70;;;5.32;;
85738;SDS011;76182;41.498;22.100;2024-02-28T09:39:39;9.32;;;6.25;;
85738;SDS011;76182;41.498;22.100;2024-02-28T09:42:08;15.05;;;5.68;;
85738;SDS011;76182;41.498;22.100;2024-02-28T09:44:35;14.85;;;5.35;;
85738;SDS011;76182;41.498;22.100;2024-02-28T09:47:02;17.35;;;5.55;;
85738;SDS011;76182;41.498;22.100;2024-02-28T09:49:29;11.10;;;5.70;;
85738;SDS011;76182;41.498;22.100;2024-02-28T09:51:56;13.30;;;6.55;;
85738;SDS011;76182;41.498;22.100;2024-02-28T09:54:23;10.65;;;5.72;;
85738;SDS011;76182;41.498;22.100;2024-02-28T09:56:49;8.80;;;5.95;;
85738;SDS011;76182;41.498;22.100;2024-02-28T09:59:15;18.33;;;6.80;;
85738;SDS011;76182;41.498;22.100;2024-02-28T10:01:43;10.85;;;6.30;;
85738;SDS011;76182;41.498;22.100;2024-02-28T10:04:12;10.20;;;6.00;;
85738;SDS011;76182;41.498;22.100;2024-02-28T10:06:41;9.02;;;5.60;;
85738;SDS011;76182;41.498;22.100;2024-02-28T10:09:07;10.32;;;5.57;;
85738;SDS011;76182;41.498;22.100;2024-02-28T10:11:32;12.15;;;5.82;;
85738;SDS011;76182;41.498;22.100;2024-02-28T10:14:00;14.23;;;5.88;;
85738;SDS011;76182;41.498;22.100;2024-02-28T10:16:27;9.93;;;6.10;;
85738;SDS011;76182;41.498;22.100;2024-02-28T10:18:52;26.48;;;7.85;;
85738;SDS011;76182;41.498;22.100;2024-02-28T10:21:18;11.77;;;6.10;;
85738;SDS011;76182;41.498;22.100;2024-02-28T10:23:44;11.85;;;5.78;;
85738;SDS011;76182;41.498;22.100;2024-02-28T10:26:11;9.15;;;5.57;;
85738;SDS011;76182;41.498;22.100;2024-02-28T10:28:37;9.63;;;5.80;;
85738;SDS011;76182;41.498;22.100;2024-02-28T10:31:05;11.38;;;5.85;;
85738;SDS011;76182;41.498;22.100;2024-02-28T10:33:31;13.65;;;6.20;;
85738;SDS011;76182;41.498;22.100;2024-02-28T10:35:58;14.13;;;6.80;;
85738;SDS011;76182;41.498;22.100;2024-02-28T10:38:24;15.02;;;6.97;;
85738;SDS011;76182;41.498;22.100;2024-02-28T10:40:52;10.48;;;5.80;;
85738;SDS011;76182;41.498;22.100;2024-02-28T10:43:18;10.38;;;6.43;;
85738;SDS011;76182;41.498;22.100;2024-02-28T10:45:44;11.35;;;5.50;;
85738;SDS011;76182;41.498;22.100;2024-02-28T10:48:11;8.90;;;5.03;;
85738;SDS011;76182;41.498;22.100;2024-02-28T10:50:39;13.30;;;6.13;;
85738;SDS011;76182;41.498;22.100;2024-02-28T10:53:05;11.40;;;6.75;;
85738;SDS011;76182;41.498;22.100;2024-02-28T10:55:41;10.25;;;5.80;;
85738;SDS011;76182;41.498;22.100;2024-02-28T10:58:09;12.25;;;5.70;;
85738;SDS011;76182;41.498;22.100;2024-02-28T11:00:36;12.00;;;5.88;;
85738;SDS011;76182;41.498;22.100;2024-02-28T11:03:04;17.13;;;6.15;;
85738;SDS011;76182;41.498;22.100;2024-02-28T11:05:40;22.55;;;7.70;;
85738;SDS011;76182;41.498;22.100;2024-02-28T11:08:26;11.10;;;5.13;;
85738;SDS011;76182;41.498;22.100;2024-02-28T11:10:56;9.25;;;5.60;;
85738;SDS011;76182;41.498;22.100;2024-02-28T11:13:33;11.80;;;6.35;;
85738;SDS011;76182;41.498;22.100;2024-02-28T11:16:08;11.70;;;5.75;;
85738;SDS011;76182;41.498;22.100;2024-02-28T11:18:34;9.50;;;6.15;;
85738;SDS011;76182;41.498;22.100;2024-02-28T11:21:00;10.77;;;5.70;;
85738;SDS011;76182;41.498;22.100;2024-02-28T11:23:26;17.60;;;6.82;;
85738;SDS011;76182;41.498;22.100;2024-02-28T11:26:02;13.20;;;6.03;;
85738;SDS011;76182;41.498;22.100;2024-02-28T11:28:28;12.25;;;7.10;;
85738;SDS011;76182;41.498;22.100;2024-02-28T11:30:54;10.73;;;5.93;;
85738;SDS011;76182;41.498;22.100;2024-02-28T11:33:19;11.75;;;6.07;;
85738;SDS011;76182;41.498;22.100;2024-02-28T11:35:53;12.43;;;6.40;;
85738;SDS011;76182;41.498;22.100;2024-02-28T11:38:24;11.38;;;7.03;;
85738;SDS011;76182;41.498;22.100;2024-02-28T11:40:50;14.80;;;6.15;;
85738;SDS011;76182;41.498;22.100;2024-02-28T11:43:15;14.43;;;6.65;;
85738;SDS011;76182;41.498;22.100;2024-02-28T11:45:42;10.05;;;5.93;;
85738;SDS011;76182;41.498;22.100;2024-02-28T11:48:08;14.38;;;6.82;;
85738;SDS011;76182;41.498;22.100;2024-02-28T11:50:34;13.23;;;6.28;;
85738;SDS011;76182;41.498;22.100;2024-02-28T11:53:02;10.90;;;5.97;;
85738;SDS011;76182;41.498;22.100;2024-02-28T11:55:29;12.65;;;5.93;;
85738;SDS011;76182;41.498;22.100;2024-02-28T11:57:55;16.90;;;7.13;;
85738;SDS011;76182;41.498;22.100;2024-02-28T12:00:21;11.95;;;6.10;;
85738;SDS011;76182;41.498;22.100;2024-02-28T12:02:46;12.20;;;6.57;;
85738;SDS011;76182;41.498;22.100;2024-02-28T12:05:12;12.13;;;5.80;;
85738;SDS011;76182;41.498;22.100;2024-02-28T12:07:38;10.00;;;6.20;;
85738;SDS011;76182;41.498;22.100;2024-02-28T12:10:05;9.02;;;5.95;;
85738;SDS011;76182;41.498;22.100;2024-02-28T12:12:31;10.00;;;6.38;;
85738;SDS011;76182;41.498;22.100;2024-02-28T12:14:58;24.08;;;6.75;;
85738;SDS011;76182;41.498;22.100;2024-02-28T12:17:30;18.60;;;6.13;;
85738;SDS011;76182;41.498;22.100;2024-02-28T12:19:56;10.32;;;5.93;;
85738;SDS011;76182;41.498;22.100;2024-02-28T12:22:23;15.65;;;6.38;;
85738;SDS011;76182;41.498;22.100;2024-02-28T12:24:49;14.02;;;6.40;;
85738;SDS011;76182;41.498;22.100;2024-02-28T12:27:14;14.45;;;6.03;;
85738;SDS011;76182;41.498;22.100;2024-02-28T12:29:40;11.02;;;6.20;;
85738;SDS011;76182;41.498;22.100;2024-02-28T12:32:05;11.75;;;6.60;;
85738;SDS011;76182;41.498;22.100;2024-02-28T12:34:32;15.15;;;5.97;;
85738;SDS011;76182;41.498;22.100;2024-02-28T12:36:58;11.25;;;6.15;;
85738;SDS011;76182;41.498;22.100;2024-02-28T12:39:25;10.07;;;5.82;;
85738;SDS011;76182;41.498;22.100;2024-02-28T12:41:50;10.63;;;6.10;;
85738;SDS011;76182;41.498;22.100;2024-02-28T12:44:16;9.40;;;5.85;;
85738;SDS011;76182;41.498;22.100;2024-02-28T12:46:41;9.73;;;5.75;;
85738;SDS011;76182;41.498;22.100;2024-02-28T12:49:07;11.63;;;5.95;;
85738;SDS011;76182;41.498;22.100;2024-02-28T12:51:36;10.23;;;6.75;;
85738;SDS011;76182;41.498;22.100;2024-02-28T12:54:06;18.42;;;6.07;;
85738;SDS011;76182;41.498;22.100;2024-02-28T12:56:35;11.68;;;6.03;;
85738;SDS011;76182;41.498;22.100;2024-02-28T12:59:01;11.02;;;5.78;;
85738;SDS011;76182;41.498;22.100;2024-02-28T13:01:28;10.75;;;6.10;;
85738;SDS011;76182;41.498;22.100;2024-02-28T13:03:54;13.52;;;5.50;;
85738;SDS011;76182;41.498;22.100;2024-02-28T13:06:20;14.40;;;6.32;;
85738;SDS011;76182;41.498;22.100;2024-02-28T13:08:45;16.33;;;6.38;;
85738;SDS011;76182;41.498;22.100;2024-02-28T13:11:17;9.48;;;6.07;;
85738;SDS011;76182;41.498;22.100;2024-02-28T13:13:44;14.52;;;6.68;;
85738;SDS011;76182;41.498;22.100;2024-02-28T13:16:09;9.95;;;5.82;;
85738;SDS011;76182;41.498;22.100;2024-02-28T13:18:35;10.18;;;5.95;;
85738;SDS011;76182;41.498;22.100;2024-02-28T13:21:00;9.88;;;6.45;;
85738;SDS011;76182;41.498;22.100;2024-02-28T13:23:26;12.55;;;5.82;;
85738;SDS011;76182;41.498;22.100;2024-02-28T13:25:52;12.35;;;6.13;;
85738;SDS011;76182;41.498;22.100;2024-02-28T13:28:17;15.07;;;5.65;;
85738;SDS011;76182;41.498;22.100;2024-02-28T13:30:43;10.32;;;6.35;;
85738;SDS011;76182;41.498;22.100;2024-02-28T13:33:08;11.35;;;6.00;;
85738;SDS011;76182;41.498;22.100;2024-02-28T13:35:34;13.50;;;5.88;;
85738;SDS011;76182;41.498;22.100;2024-02-28T13:38:00;13.38;;;5.75;;
85738;SDS011;76182;41.498;22.100;2024-02-28T13:40:26;14.15;;;5.93;;
85738;SDS011;76182;41.498;22.100;2024-02-28T13:42:52;10.30;;;5.72;;
85738;SDS011;76182;41.498;22.100;2024-02-28T13:45:18;10.40;;;5.72;;
85738;SDS011;76182;41.498;22.100;2024-02-28T13:47:44;9.85;;;5.85;;
85738;SDS011;76182;41.498;22.100;2024-02-28T13:50:10;8.63;;;5.30;;
85738;SDS011;76182;41.498;22.100;2024-02-28T13:52:35;10.90;;;6.18;;
85738;SDS011;76182;41.498;22.100;2024-02-28T13:55:01;11.90;;;6.55;;
85738;SDS011;76182;41.498;22.100;2024-02-28T13:57:27;12.05;;;6.00;;
85738;SDS011;76182;41.498;22.100;2024-02-28T13:59:53;13.75;;;5.80;;
85738;SDS011;76182;41.498;22.100;2024-02-28T14:02:20;10.80;;;5.63;;
85738;SDS011;76182;41.498;22.100;2024-02-28T14:04:47;10.80;;;5.18;;
85738;SDS011;76182;41.498;22.100;2024-02-28T14:07:14;8.32;;;5.03;;
85738;SDS011;76182;41.498;22.100;2024-02-28T14:09:41;10.82;;;5.75;;
85738;SDS011;76182;41.498;22.100;2024-02-28T14:12:08;12.80;;;5.90;;